createdAt,value
2023-01-28T00:01:43.779Z,99086.97
2023-01-28T00:04:11.722Z,99080.19
2023-01-28T00:06:42.005Z,99080.09
2023-01-28T00:09:14.879Z,99079.47
2023-01-28T00:11:42.743Z,99076.22
2023-01-28T00:14:10.594Z,99080.41
2023-01-28T00:16:38.191Z,99075.31
2023-01-28T00:19:07.699Z,99082.19
2023-01-28T00:21:39.778Z,99076.03
2023-01-28T00:24:15.875Z,99071.56
2023-01-28T00:26:45.999Z,99069.78
2023-01-28T00:29:13.359Z,99073.84
2023-01-28T00:31:41.474Z,99074.06
2023-01-28T00:34:08.882Z,99074.78
2023-01-28T00:36:39.735Z,99076.78
2023-01-28T00:39:09.536Z,99073.53
2023-01-28T00:41:37.584Z,99072.38
2023-01-28T00:44:04.937Z,99074.16
2023-01-28T00:46:32.246Z,99072.28
2023-01-28T00:48:59.526Z,99071.44
2023-01-28T00:53:54.172Z,99074.59
2023-01-28T00:56:21.519Z,99081.44
2023-01-28T00:58:48.863Z,99083.50
2023-01-28T01:01:16.208Z,99087.91
2023-01-28T01:03:43.599Z,99082.19
2023-01-28T01:06:10.913Z,99078.22
2023-01-28T01:08:47.625Z,99077.50
2023-01-28T01:11:26.110Z,99082.38
2023-01-28T01:13:54.947Z,99088.03
2023-01-28T01:16:22.299Z,99083.41
2023-01-28T01:18:49.628Z,99086.25
2023-01-28T01:21:17.758Z,99080.09
2023-01-28T01:23:45.062Z,99082.69
2023-01-28T01:26:12.376Z,99086.03
2023-01-28T01:28:39.675Z,99090.00
2023-01-28T01:31:07.126Z,99083.84
2023-01-28T01:33:34.630Z,99096.03
2023-01-28T01:36:02.137Z,99094.69
2023-01-28T01:38:29.752Z,99084.03
2023-01-28T01:40:58.089Z,99093.81
2023-01-28T01:43:25.601Z,99095.38
2023-01-28T01:45:53.485Z,99098.28
2023-01-28T01:48:20.901Z,99098.50
2023-01-28T01:50:48.200Z,99101.09
2023-01-28T01:55:42.831Z,99109.22
2023-01-28T01:58:10.216Z,99112.41
2023-01-28T02:00:37.513Z,99110.34
2023-01-28T02:03:04.842Z,99108.47
2023-01-28T02:05:32.122Z,99116.47
2023-01-28T02:08:18.196Z,99106.06
2023-01-28T02:10:45.359Z,99104.09
2023-01-28T02:13:12.717Z,99114.00
2023-01-28T02:15:40.108Z,99103.97
2023-01-28T02:18:07.424Z,99114.50
2023-01-28T02:20:34.748Z,99116.56
2023-01-28T02:23:02.006Z,99112.22
2023-01-28T02:25:29.272Z,99108.13
2023-01-28T02:27:56.646Z,99105.44
2023-01-28T02:30:23.911Z,99103.84
2023-01-28T02:32:51.189Z,99109.38
2023-01-28T02:35:18.513Z,99104.47
2023-01-28T02:37:45.894Z,99099.34
2023-01-28T02:40:13.237Z,99114.22
2023-01-28T02:42:40.746Z,99113.50
2023-01-28T02:45:08.069Z,99118.06
2023-01-28T02:47:53.997Z,99116.59
2023-01-28T02:50:21.261Z,99113.78
2023-01-28T02:53:08.261Z,99114.19
2023-01-28T02:55:35.727Z,99119.38
2023-01-28T02:58:03.124Z,99125.72
2023-01-28T03:00:30.530Z,99122.91
2023-01-28T03:02:57.781Z,99121.44
2023-01-28T03:05:25.203Z,99124.06
2023-01-28T03:07:52.594Z,99124.06
2023-01-28T03:10:20.086Z,99126.97
2023-01-28T03:13:06.096Z,99125.38
2023-01-28T03:15:52.216Z,99123.59
2023-01-28T03:18:38.348Z,99131.41
2023-01-28T03:21:24.499Z,99137.44
2023-01-28T03:24:10.429Z,99135.97
2023-01-28T03:26:56.628Z,99141.28
2023-01-28T03:29:42.722Z,99142.41
2023-01-28T03:32:28.609Z,99144.16
2023-01-28T03:35:14.794Z,99149.25
2023-01-28T03:37:42.261Z,99143.34
2023-01-28T03:40:09.584Z,99140.00
2023-01-28T03:42:36.857Z,99147.16
2023-01-28T03:45:05.483Z,99155.06
2023-01-28T03:50:00.482Z,99156.59
2023-01-28T03:52:27.901Z,99156.78
2023-01-28T03:54:55.243Z,99156.06
2023-01-28T03:57:22.603Z,99156.06
2023-01-28T03:59:49.955Z,99158.78
2023-01-28T04:02:17.238Z,99158.84
2023-01-28T04:04:44.491Z,99158.84
2023-01-28T04:07:11.749Z,99166.00
2023-01-28T04:09:39.064Z,99161.84
2023-01-28T04:12:06.367Z,99169.72
2023-01-28T04:14:33.685Z,99174.09
2023-01-28T04:17:01.431Z,99171.66
2023-01-28T04:19:28.876Z,99175.06
2023-01-28T04:21:56.827Z,99173.41
2023-01-28T04:24:24.565Z,99174.34
2023-01-28T04:26:51.926Z,99181.38
2023-01-28T04:29:19.226Z,99187.53
2023-01-28T04:31:46.581Z,99190.84
2023-01-28T04:34:14.005Z,99189.28
2023-01-28T04:36:41.226Z,99191.88
2023-01-28T04:39:08.573Z,99189.47
2023-01-28T04:41:35.995Z,99181.78
2023-01-28T04:44:03.285Z,99176.78
2023-01-28T04:46:30.672Z,99177.59
2023-01-28T04:48:57.983Z,99184.56
2023-01-28T04:51:25.299Z,99179.66
2023-01-28T04:53:52.581Z,99189.00
2023-01-28T04:56:19.904Z,99192.44
2023-01-28T04:58:47.433Z,99184.84
2023-01-28T05:01:16.920Z,99189.28
2023-01-28T05:03:44.287Z,99195.44
2023-01-28T05:06:11.552Z,99191.13
2023-01-28T05:08:38.930Z,99195.44
2023-01-28T05:11:06.272Z,99192.19
2023-01-28T05:13:33.536Z,99186.88
2023-01-28T05:16:00.923Z,99189.66
2023-01-28T05:20:55.487Z,99188.00
2023-01-28T05:23:22.783Z,99190.69
2023-01-28T05:25:50.136Z,99182.97
2023-01-28T05:28:17.515Z,99192.53
2023-01-28T05:30:44.885Z,99190.88
2023-01-28T05:33:12.287Z,99189.22
2023-01-28T05:35:39.570Z,99192.72
2023-01-28T05:38:06.902Z,99191.88
2023-01-28T05:40:34.207Z,99195.31
2023-01-28T05:43:01.465Z,99200.72
2023-01-28T05:47:55.929Z,99211.09
2023-01-28T05:50:23.259Z,99201.63
2023-01-28T05:52:50.664Z,99208.56
2023-01-28T05:55:20.661Z,99214.69
2023-01-28T05:57:48.152Z,99206.25
2023-01-28T06:00:16.329Z,99204.59
2023-01-28T06:02:44.010Z,99214.06
2023-01-28T06:05:11.413Z,99208.94
2023-01-28T06:07:38.901Z,99216.81
2023-01-28T06:10:06.278Z,99215.16
2023-01-28T06:12:33.618Z,99214.41
2023-01-28T06:15:00.915Z,99213.50
2023-01-28T06:19:55.516Z,99224.97
2023-01-28T06:22:22.804Z,99226.66
2023-01-28T06:24:50.097Z,99224.13
2023-01-28T06:27:17.353Z,99231.09
2023-01-28T06:29:44.700Z,99232.97
2023-01-28T06:32:12.120Z,99234.69
2023-01-28T06:34:39.471Z,99240.81
2023-01-28T06:37:06.867Z,99242.59
2023-01-28T06:39:34.342Z,99246.09
2023-01-28T06:42:01.615Z,99248.78
2023-01-28T06:44:29.007Z,99250.47
2023-01-28T06:46:56.320Z,99253.25
2023-01-28T06:49:23.619Z,99263.63
2023-01-28T06:51:50.867Z,99265.38
2023-01-28T06:54:18.206Z,99260.25
2023-01-28T06:56:45.531Z,99264.56
2023-01-28T06:59:12.818Z,99260.25
2023-01-28T07:01:40.253Z,99268.88
2023-01-28T07:04:07.660Z,99273.34
2023-01-28T07:06:35.056Z,99275.19
2023-01-28T07:09:02.418Z,99279.53
2023-01-28T07:11:29.778Z,99282.22
2023-01-28T07:13:57.037Z,99280.56
2023-01-28T07:16:24.312Z,99280.66
2023-01-28T07:18:51.654Z,99289.25
2023-01-28T07:21:19.107Z,99287.50
2023-01-28T07:23:46.709Z,99281.56
2023-01-28T07:26:15.563Z,99291.97
2023-01-28T07:28:42.886Z,99288.59
2023-01-28T07:31:10.458Z,99280.81
2023-01-28T07:33:37.826Z,99284.25
2023-01-28T07:36:05.161Z,99292.97
2023-01-28T07:38:32.423Z,99294.72
2023-01-28T07:40:59.756Z,99296.31
2023-01-28T07:45:54.347Z,99301.63
2023-01-28T07:48:21.743Z,99300.47
2023-01-28T07:50:51.228Z,99292.56
2023-01-28T07:53:19.725Z,99289.88
2023-01-28T07:55:47.243Z,99291.41
2023-01-28T07:58:14.592Z,99300.03
2023-01-28T08:00:41.945Z,99298.31
2023-01-28T08:03:09.205Z,99305.78
2023-01-28T08:05:36.508Z,99303.28
2023-01-28T08:08:03.983Z,99305.00
2023-01-28T08:10:31.306Z,99304.19
2023-01-28T08:13:43.731Z,99300.47
2023-01-28T08:18:50.980Z,99300.47
2023-01-28T08:23:45.470Z,99308.94
2023-01-28T08:28:39.977Z,99310.41
2023-01-28T08:31:07.432Z,99312.19
2023-01-28T08:33:34.844Z,99314.72
2023-01-28T08:36:02.108Z,99308.69
2023-01-28T08:38:29.420Z,99316.56
2023-01-28T08:43:23.912Z,99324.00
2023-01-28T08:45:51.214Z,99318.69
2023-01-28T08:50:45.811Z,99317.88
2023-01-28T08:58:07.688Z,99322.22
2023-01-28T09:03:04.597Z,99322.91
2023-01-28T09:05:34.129Z,99325.50
2023-01-28T09:08:01.456Z,99323.63
2023-01-28T09:10:28.804Z,99329.56
2023-01-28T09:12:56.170Z,99327.75
2023-01-28T09:15:23.518Z,99332.19
2023-01-28T09:17:50.907Z,99331.25
2023-01-28T09:20:18.458Z,99335.53
2023-01-28T09:22:45.827Z,99338.03
2023-01-28T09:25:15.547Z,99337.19
2023-01-28T09:27:43.117Z,99337.19
2023-01-28T09:30:10.643Z,99344.16
2023-01-28T09:35:07.717Z,99355.00
2023-01-28T09:37:35.077Z,99351.69
2023-01-28T09:40:02.496Z,99356.78
2023-01-28T09:42:30.027Z,99356.88
2023-01-28T09:44:57.407Z,99366.28
2023-01-28T09:47:24.766Z,99368.88
2023-01-28T09:49:52.099Z,99374.06
2023-01-28T09:52:19.476Z,99374.91
2023-01-28T09:54:46.844Z,99378.16
2023-01-28T09:57:14.128Z,99378.16
2023-01-28T09:59:41.516Z,99380.75
2023-01-28T10:02:08.778Z,99374.63
2023-01-28T10:04:36.154Z,99367.66
2023-01-28T10:07:03.454Z,99378.16
2023-01-28T10:09:30.767Z,99377.22
2023-01-28T10:11:58.082Z,99378.06
2023-01-28T10:14:25.418Z,99374.63
2023-01-28T10:16:52.731Z,99367.56
2023-01-28T10:19:20.248Z,99368.31
2023-01-28T10:21:47.519Z,99367.47
2023-01-28T10:24:14.860Z,99364.88
2023-01-28T10:26:42.338Z,99357.81
2023-01-28T10:29:09.640Z,99363.00
2023-01-28T10:31:37.074Z,99363.88
2023-01-28T10:34:04.651Z,99361.22
2023-01-28T10:36:34.096Z,99368.06
2023-01-28T10:39:01.352Z,99365.47
2023-01-28T10:43:55.990Z,99364.75
2023-01-28T10:46:23.381Z,99367.25
2023-01-28T10:48:50.747Z,99362.97
2023-01-28T10:51:20.076Z,99370.59
2023-01-28T10:53:47.411Z,99369.75
2023-01-28T10:56:14.749Z,99370.50
2023-01-28T10:58:42.069Z,99368.84
2023-01-28T11:01:09.552Z,99370.41
2023-01-28T11:06:04.191Z,99374.75
2023-01-28T11:08:31.592Z,99375.59
2023-01-28T11:10:58.915Z,99369.50
2023-01-28T11:15:53.463Z,99368.56
2023-01-28T11:18:20.770Z,99372.81
2023-01-28T11:20:48.090Z,99375.53
2023-01-28T11:26:02.755Z,99374.59
2023-01-28T11:28:30.054Z,99371.91
2023-01-28T11:30:57.508Z,99376.19
2023-01-28T11:35:52.581Z,99374.41
2023-01-28T11:38:20.097Z,99376.19
2023-01-28T11:40:47.453Z,99375.25
2023-01-28T11:43:14.976Z,99373.41
2023-01-28T11:45:42.470Z,99375.25
2023-01-28T11:48:11.319Z,99369.94
2023-01-28T11:50:38.676Z,99366.25
2023-01-28T11:53:07.423Z,99370.69
2023-01-28T11:55:35.029Z,99367.28
2023-01-28T11:58:02.358Z,99368.94
2023-01-28T12:00:31.515Z,99371.53
2023-01-28T12:02:58.926Z,99376.72
2023-01-28T12:05:26.346Z,99364.50
2023-01-28T12:07:53.715Z,99366.91
2023-01-28T12:10:21.088Z,99367.09
2023-01-28T12:12:48.461Z,99377.31
2023-01-28T12:15:15.780Z,99375.44
2023-01-28T12:17:43.155Z,99369.22
2023-01-28T12:20:13.287Z,99374.44
2023-01-28T12:22:40.768Z,99365.88
2023-01-28T12:25:08.199Z,99366.53
2023-01-28T12:30:03.542Z,99373.59
2023-01-28T12:32:31.642Z,99372.84
2023-01-28T12:34:59.057Z,99370.91
2023-01-28T12:37:27.259Z,99368.28
2023-01-28T12:39:54.709Z,99371.56
2023-01-28T12:42:22.016Z,99362.09
2023-01-28T12:44:49.485Z,99366.25
2023-01-28T12:52:11.453Z,99353.91
2023-01-28T12:54:38.930Z,99350.56
2023-01-28T12:57:07.651Z,99345.25
2023-01-28T12:59:35.039Z,99350.41
2023-01-28T13:02:02.504Z,99347.38
2023-01-28T13:06:57.578Z,99349.63
2023-01-28T13:09:25.176Z,99356.31
2023-01-28T13:11:52.609Z,99355.41
2023-01-28T13:14:20.027Z,99354.00
2023-01-28T13:16:47.578Z,99356.31
2023-01-28T13:19:14.994Z,99355.66
2023-01-28T13:21:49.072Z,99365.25
2023-01-28T13:24:17.096Z,99366.81
2023-01-28T13:26:44.882Z,99362.53
2023-01-28T13:29:12.302Z,99370.34
2023-01-28T13:31:39.800Z,99371.91
2023-01-28T13:34:07.253Z,99368.22
2023-01-28T13:36:34.864Z,99376.94
2023-01-28T13:39:02.855Z,99364.88
2023-01-28T13:41:32.442Z,99371.84
2023-01-28T13:44:01.315Z,99375.06
2023-01-28T13:46:28.773Z,99375.19
2023-01-28T13:48:56.130Z,99371.09
2023-01-28T13:51:23.481Z,99368.38
2023-01-28T13:53:50.833Z,99382.25
2023-01-28T13:59:56.441Z,99382.03
2023-01-28T14:02:24.006Z,99388.00
2023-01-28T14:04:51.541Z,99396.75
2023-01-28T14:07:22.018Z,99400.06
2023-01-28T14:09:49.831Z,99393.19
2023-01-28T14:12:20.038Z,99393.09
2023-01-28T14:17:14.521Z,99396.16
2023-01-28T14:19:41.947Z,99399.22
2023-01-28T14:22:09.251Z,99409.63
2023-01-28T14:27:03.951Z,99414.94
2023-01-28T14:29:31.389Z,99419.09
2023-01-28T14:31:58.952Z,99419.03
2023-01-28T14:34:26.417Z,99422.34
2023-01-28T14:36:53.966Z,99430.16
2023-01-28T14:39:21.442Z,99430.09
2023-01-28T14:41:51.737Z,99429.34
2023-01-28T14:44:19.222Z,99428.69
2023-01-28T14:46:51.971Z,99427.38
2023-01-28T14:49:19.342Z,99433.81
2023-01-28T14:51:46.751Z,99440.94
2023-01-28T14:54:14.315Z,99444.47
2023-01-28T14:59:09.214Z,99442.69
2023-01-28T15:04:20.879Z,99448.66
2023-01-28T15:06:51.461Z,99448.31
2023-01-28T15:09:19.206Z,99461.09
2023-01-28T15:11:49.886Z,99461.84
2023-01-28T15:14:20.679Z,99455.00
2023-01-28T15:16:54.372Z,99452.09
2023-01-28T15:28:40.299Z,99471.81
2023-01-28T15:31:10.342Z,99468.19
2023-01-28T15:37:44.346Z,99489.91
2023-01-28T15:40:26.568Z,99486.13
2023-01-28T15:43:02.341Z,99483.34
2023-01-28T15:45:29.998Z,99478.03
2023-01-28T15:48:15.861Z,99485.13
2023-01-28T15:50:47.038Z,99485.00
2023-01-28T15:53:17.627Z,99489.84
2023-01-28T15:58:12.739Z,99494.31
2023-01-28T16:00:40.474Z,99503.97
2023-01-28T16:03:14.642Z,99494.94
2023-01-28T16:05:47.955Z,99498.47
2023-01-28T16:08:15.550Z,99503.13
2023-01-28T16:10:43.033Z,99505.44
2023-01-28T16:13:21.037Z,99505.72
2023-01-28T16:15:56.055Z,99506.00
2023-01-28T16:18:23.772Z,99495.69
2023-01-28T16:20:51.543Z,99498.03
2023-01-28T16:23:18.957Z,99496.25
2023-01-28T16:25:46.440Z,99509.44
2023-01-28T16:28:13.795Z,99505.94
2023-01-28T16:30:41.180Z,99503.22
2023-01-28T16:33:08.995Z,99507.69
2023-01-28T16:38:03.672Z,99503.88
2023-01-28T16:40:32.318Z,99504.16
2023-01-28T16:42:59.687Z,99494.59
2023-01-28T16:47:54.397Z,99488.72
2023-01-28T16:52:53.866Z,99502.38
2023-01-28T16:55:24.756Z,99505.09
2023-01-28T16:58:01.319Z,99510.31
2023-01-28T17:00:37.548Z,99505.00
2023-01-28T17:03:12.798Z,99504.22
2023-01-28T17:05:55.380Z,99500.81
2023-01-28T17:08:37.331Z,99505.16
2023-01-28T17:11:07.354Z,99509.44
2023-01-28T17:13:35.351Z,99511.13
2023-01-28T17:16:06.640Z,99502.38
2023-01-28T17:18:37.320Z,99513.63
2023-01-28T17:21:11.003Z,99513.44
2023-01-28T17:26:07.335Z,99523.94
2023-01-28T17:31:19.280Z,99536.13
2023-01-28T17:33:47.145Z,99535.22
2023-01-28T17:36:15.015Z,99536.22
2023-01-28T17:41:15.479Z,99533.72
2023-01-28T17:46:13.474Z,99534.56
2023-01-28T17:51:25.608Z,99527.47
2023-01-28T17:53:53.366Z,99518.72
2023-01-28T17:56:23.479Z,99525.91
2023-01-28T17:58:51.244Z,99528.59
2023-01-28T18:01:18.901Z,99536.31
2023-01-28T18:03:52.033Z,99529.34
2023-01-28T18:06:27.436Z,99541.53
2023-01-28T18:08:57.629Z,99535.56
2023-01-28T18:11:25.777Z,99546.72
2023-01-28T18:13:53.375Z,99553.78
2023-01-28T18:16:21.062Z,99556.28
2023-01-28T18:18:50.890Z,99557.88
2023-01-28T18:21:18.508Z,99563.84
2023-01-28T18:23:48.312Z,99557.03
2023-01-28T18:26:16.046Z,99561.31
2023-01-28T18:31:20.718Z,99570.31
2023-01-28T18:36:16.042Z,99574.69
2023-01-28T18:39:01.305Z,99572.09
2023-01-28T18:41:31.870Z,99569.28
2023-01-28T18:44:01.870Z,99570.16
2023-01-28T18:46:29.431Z,99569.38
2023-01-28T18:48:57.585Z,99576.25
2023-01-28T18:51:30.321Z,99578.84
2023-01-28T18:53:58.170Z,99579.69
2023-01-28T18:56:25.894Z,99574.59
2023-01-28T18:58:53.449Z,99584.72
2023-01-28T19:01:24.240Z,99592.69
2023-01-28T19:03:52.111Z,99600.50
2023-01-28T19:06:20.038Z,99601.28
2023-01-28T19:08:47.728Z,99599.78
2023-01-28T19:11:17.814Z,99606.66
2023-01-28T19:13:45.133Z,99604.16
2023-01-28T19:16:12.610Z,99604.31
2023-01-28T19:18:40.789Z,99604.22
2023-01-28T19:21:08.133Z,99603.50
2023-01-28T19:23:49.261Z,99601.06
2023-01-28T19:26:21.284Z,99593.81
2023-01-28T19:28:49.564Z,99589.84
2023-01-28T19:31:19.024Z,99593.94
2023-01-28T19:33:46.499Z,99589.47
2023-01-28T19:36:14.008Z,99587.63
2023-01-28T19:38:41.427Z,99589.31
2023-01-28T19:41:08.814Z,99596.19
2023-01-28T19:43:36.159Z,99599.44
2023-01-28T19:46:03.783Z,99594.34
2023-01-28T19:48:31.166Z,99592.47
2023-01-28T19:50:58.514Z,99606.50
2023-01-28T19:53:25.948Z,99599.38
2023-01-28T19:58:20.691Z,99610.97
2023-01-28T20:00:48.127Z,99615.06
2023-01-28T20:03:15.723Z,99629.66
2023-01-28T20:08:10.674Z,99658.97
2023-01-28T20:10:38.125Z,99661.00
2023-01-28T20:13:08.219Z,99667.72
2023-01-28T20:18:30.581Z,99683.13
2023-01-28T20:20:58.035Z,99677.19
2023-01-28T20:23:25.464Z,99680.88
2023-01-28T20:25:54.830Z,99678.28
2023-01-28T20:28:22.590Z,99685.94
2023-01-28T20:31:07.825Z,99685.00
2023-01-28T20:33:35.908Z,99679.69
2023-01-28T20:36:03.533Z,99685.72
2023-01-28T20:38:31.176Z,99690.75
2023-01-28T20:40:58.662Z,99693.19
2023-01-28T20:43:27.861Z,99679.34
2023-01-28T20:45:57.364Z,99670.75
2023-01-28T20:48:24.747Z,99672.38
2023-01-28T20:50:52.103Z,99674.66
2023-01-28T20:53:19.565Z,99671.38
2023-01-28T20:58:14.430Z,99676.22
2023-01-28T21:03:09.576Z,99671.50
2023-01-28T21:08:11.975Z,99675.50
2023-01-28T21:13:08.241Z,99669.06
2023-01-28T21:15:35.609Z,99665.44
2023-01-28T21:18:05.780Z,99668.72
2023-01-28T21:20:33.108Z,99662.09
2023-01-28T21:23:03.083Z,99660.16
2023-01-28T21:27:57.896Z,99655.78
2023-01-28T21:30:25.342Z,99643.78
2023-01-28T21:35:21.486Z,99665.84
2023-01-28T21:40:23.945Z,99685.84
2023-01-28T21:42:54.915Z,99685.84
2023-01-28T21:45:22.455Z,99685.66
2023-01-28T21:51:01.746Z,99678.41
2023-01-28T21:53:29.172Z,99669.19
2023-01-28T21:55:56.970Z,99680.44
2023-01-28T22:01:56.429Z,99680.16
2023-01-28T22:04:25.751Z,99685.19
2023-01-28T22:06:53.217Z,99686.22
2023-01-28T22:09:20.586Z,99675.91
2023-01-28T22:11:47.971Z,99676.06
2023-01-28T22:14:16.534Z,99673.47
2023-01-28T22:19:11.616Z,99685.84
2023-01-28T22:21:47.561Z,99677.25
2023-01-28T22:24:14.993Z,99684.16
2023-01-28T22:26:45.047Z,99678.97
2023-01-28T22:29:12.381Z,99676.34
2023-01-28T22:31:39.861Z,99676.19
2023-01-28T22:34:09.612Z,99665.09
2023-01-28T22:36:37.475Z,99672.34
2023-01-28T22:39:05.118Z,99680.81
2023-01-28T22:44:04.517Z,99675.53
2023-01-28T22:51:26.546Z,99667.94
2023-01-28T22:53:54.111Z,99676.81
2023-01-28T22:56:21.446Z,99665.34
2023-01-28T22:58:48.858Z,99663.69
2023-01-28T23:01:17.645Z,99666.38
2023-01-28T23:03:45.566Z,99661.19
2023-01-28T23:06:13.127Z,99661.63
2023-01-28T23:08:40.634Z,99651.31
2023-01-28T23:11:15.487Z,99646.47
2023-01-28T23:14:01.284Z,99649.72
2023-01-28T23:16:47.316Z,99646.47
2023-01-28T23:19:33.025Z,99648.81
2023-01-28T23:22:19.141Z,99654.19
2023-01-28T23:24:46.461Z,99652.59
2023-01-28T23:27:13.755Z,99646.56
2023-01-28T23:29:41.845Z,99640.59
2023-01-28T23:32:10.017Z,99647.31
2023-01-28T23:34:37.396Z,99639.31
2023-01-28T23:37:04.921Z,99644.91
2023-01-28T23:39:32.216Z,99651.94
2023-01-28T23:41:59.545Z,99658.81
2023-01-28T23:44:26.907Z,99664.25
2023-01-28T23:46:54.364Z,99660.59
2023-01-28T23:49:21.802Z,99655.31
2023-01-28T23:51:49.803Z,99663.84
2023-01-28T23:54:17.633Z,99668.63
2023-01-28T23:59:12.309Z,99660.88
